createdAt,value
2019-03-26T00:00:20.699Z,1026.67
2019-03-26T00:01:20.694Z,1026.65
2019-03-26T00:02:20.660Z,1026.72
2019-03-26T00:03:20.461Z,1026.70
2019-03-26T00:04:20.459Z,1026.75
2019-03-26T00:05:20.337Z,1026.72
2019-03-26T00:06:20.342Z,1026.73
2019-03-26T00:07:20.300Z,1026.75
2019-03-26T00:08:20.223Z,1026.71
2019-03-26T00:09:20.225Z,1026.73
2019-03-26T00:10:20.098Z,1026.71
2019-03-26T00:11:20.099Z,1026.70
2019-03-26T00:12:20.096Z,1026.65
2019-03-26T00:13:19.983Z,1026.68
2019-03-26T00:14:19.977Z,1026.58
2019-03-26T00:15:19.862Z,1026.64
2019-03-26T00:16:19.867Z,1026.66
2019-03-26T00:17:19.853Z,1026.69
2019-03-26T00:18:19.736Z,1026.67
2019-03-26T00:19:19.741Z,1026.67
2019-03-26T00:20:19.621Z,1026.66
2019-03-26T00:21:19.617Z,1026.65
2019-03-26T00:22:19.616Z,1026.65
2019-03-26T00:23:19.499Z,1026.66
2019-03-26T00:24:19.502Z,1026.65
2019-03-26T00:25:19.376Z,1026.63
2019-03-26T00:26:19.379Z,1026.69
2019-03-26T00:27:19.379Z,1026.66
2019-03-26T00:28:19.255Z,1026.63
2019-03-26T00:29:19.260Z,1026.62
2019-03-26T00:30:19.134Z,1026.64
2019-03-26T00:31:19.135Z,1026.61
2019-03-26T00:32:19.132Z,1026.60
2019-03-26T00:33:19.014Z,1026.64
2019-03-26T00:34:19.788Z,1026.62
2019-03-26T00:35:18.895Z,1026.65
2019-03-26T00:36:18.891Z,1026.69
2019-03-26T00:37:18.897Z,1026.69
2019-03-26T00:38:18.777Z,1026.74
2019-03-26T00:39:18.770Z,1026.75
2019-03-26T00:40:18.653Z,1026.76
2019-03-26T00:41:18.651Z,1026.77
2019-03-26T00:42:18.651Z,1026.75
2019-03-26T00:43:18.536Z,1026.75
2019-03-26T00:44:18.534Z,1026.77
2019-03-26T00:45:18.411Z,1026.81
2019-03-26T00:46:18.415Z,1026.83
2019-03-26T00:47:18.409Z,1026.77
2019-03-26T00:48:18.291Z,1026.75
2019-03-26T00:49:18.291Z,1026.76
2019-03-26T00:50:18.176Z,1026.79
2019-03-26T00:51:18.173Z,1026.76
2019-03-26T00:52:18.167Z,1026.83
2019-03-26T00:53:18.060Z,1026.83
2019-03-26T00:54:18.051Z,1026.81
2019-03-26T00:55:23.009Z,1026.83
2019-03-26T00:56:17.927Z,1026.84
2019-03-26T00:57:17.927Z,1026.78
2019-03-26T00:58:17.807Z,1026.77
2019-03-26T00:59:17.814Z,1026.80
2019-03-26T01:00:17.695Z,1026.80
2019-03-26T01:01:17.689Z,1026.82
2019-03-26T01:02:17.691Z,1026.83
2019-03-26T01:03:17.568Z,1026.83
2019-03-26T01:04:17.571Z,1026.78
2019-03-26T01:05:17.450Z,1026.84
2019-03-26T01:06:17.452Z,1026.78
2019-03-26T01:07:17.447Z,1026.81
2019-03-26T01:08:17.323Z,1026.82
2019-03-26T01:09:17.330Z,1026.82
2019-03-26T01:10:17.207Z,1026.83
2019-03-26T01:11:17.206Z,1026.81
2019-03-26T01:12:17.205Z,1026.78
2019-03-26T01:13:17.095Z,1026.78
2019-03-26T01:14:17.087Z,1026.77
2019-03-26T01:15:16.962Z,1026.78
2019-03-26T01:16:16.963Z,1026.82
2019-03-26T01:17:16.968Z,1026.86
2019-03-26T01:18:16.847Z,1026.86
2019-03-26T01:19:16.842Z,1026.91
2019-03-26T01:20:16.722Z,1026.87
2019-03-26T01:21:16.724Z,1026.89
2019-03-26T01:22:16.722Z,1026.91
2019-03-26T01:23:16.601Z,1026.89
2019-03-26T01:24:16.604Z,1026.86
2019-03-26T01:25:16.481Z,1026.90
2019-03-26T01:26:16.480Z,1026.98
2019-03-26T01:27:16.487Z,1026.96
2019-03-26T01:28:16.360Z,1026.95
2019-03-26T01:29:16.360Z,1026.92
2019-03-26T01:30:16.242Z,1026.98
2019-03-26T01:31:16.242Z,1026.95
2019-03-26T01:32:16.241Z,1026.94
2019-03-26T01:33:16.121Z,1026.93
2019-03-26T01:34:16.122Z,1026.89
2019-03-26T01:35:15.998Z,1026.94
2019-03-26T01:36:16.007Z,1026.92
2019-03-26T01:37:16.003Z,1026.95
2019-03-26T01:38:15.889Z,1026.91
2019-03-26T01:39:15.945Z,1026.94
2019-03-26T01:40:15.842Z,1026.91
2019-03-26T01:41:15.791Z,1026.89
2019-03-26T01:42:15.759Z,1026.91
2019-03-26T01:43:15.642Z,1026.90
2019-03-26T01:44:15.647Z,1026.89
2019-03-26T01:45:15.600Z,1026.90
2019-03-26T01:46:15.522Z,1026.93
2019-03-26T01:47:15.516Z,1026.92
2019-03-26T01:48:15.401Z,1026.91
2019-03-26T01:49:15.397Z,1026.87
2019-03-26T01:50:15.359Z,1026.92
2019-03-26T01:51:15.280Z,1026.86
2019-03-26T01:52:15.277Z,1026.91
2019-03-26T01:53:15.155Z,1026.87
2019-03-26T01:54:15.159Z,1026.91
2019-03-26T01:55:15.152Z,1026.93
2019-03-26T01:56:15.040Z,1026.92
2019-03-26T01:57:15.040Z,1026.92
2019-03-26T01:58:14.993Z,1026.94
2019-03-26T01:59:14.921Z,1026.90
2019-03-26T02:00:14.876Z,1026.96
2019-03-26T02:01:14.797Z,1026.94
2019-03-26T02:02:14.798Z,1026.92
2019-03-26T02:03:14.680Z,1026.91
2019-03-26T02:04:14.677Z,1026.89
2019-03-26T02:05:14.636Z,1026.90
2019-03-26T02:06:14.553Z,1026.91
2019-03-26T02:07:14.560Z,1026.92
2019-03-26T02:08:14.439Z,1026.90
2019-03-26T02:09:14.431Z,1026.89
2019-03-26T02:10:14.394Z,1026.94
2019-03-26T02:11:14.316Z,1026.96
2019-03-26T02:12:14.312Z,1026.97
2019-03-26T02:13:14.192Z,1026.99
2019-03-26T02:14:14.193Z,1026.98
2019-03-26T02:15:14.186Z,1026.99
2019-03-26T02:16:14.077Z,1026.98
2019-03-26T02:17:14.075Z,1026.99
2019-03-26T02:18:13.956Z,1026.96
2019-03-26T02:19:13.950Z,1026.98
2019-03-26T02:20:13.948Z,1026.97
2019-03-26T02:21:13.831Z,1026.94
2019-03-26T02:22:13.829Z,1026.92
2019-03-26T02:23:13.709Z,1026.91
2019-03-26T02:24:13.711Z,1026.91
2019-03-26T02:25:13.715Z,1026.89
2019-03-26T02:26:13.594Z,1026.93
2019-03-26T02:27:13.593Z,1026.94
2019-03-26T02:28:13.468Z,1026.93
2019-03-26T02:29:13.471Z,1026.91
2019-03-26T02:30:13.472Z,1026.92
2019-03-26T02:31:13.351Z,1026.94
2019-03-26T02:32:13.351Z,1026.92
2019-03-26T02:33:13.231Z,1026.93
2019-03-26T02:34:13.232Z,1026.94
2019-03-26T02:35:18.435Z,1026.95
2019-03-26T02:36:13.112Z,1026.93
2019-03-26T02:37:13.106Z,1026.88
2019-03-26T02:38:12.985Z,1026.92
2019-03-26T02:39:12.992Z,1026.92
2019-03-26T02:40:12.988Z,1026.88
2019-03-26T02:41:12.876Z,1026.86
2019-03-26T02:42:12.950Z,1026.83
2019-03-26T02:43:12.744Z,1026.82
2019-03-26T02:44:12.752Z,1026.84
2019-03-26T02:45:12.752Z,1026.80
2019-03-26T02:46:12.628Z,1026.85
2019-03-26T02:47:12.624Z,1026.85
2019-03-26T02:48:12.506Z,1026.87
2019-03-26T02:49:12.513Z,1026.83
2019-03-26T02:50:12.505Z,1026.84
2019-03-26T02:51:12.389Z,1026.83
2019-03-26T02:52:12.388Z,1026.87
2019-03-26T02:53:12.267Z,1026.92
2019-03-26T02:54:12.266Z,1026.89
2019-03-26T02:55:12.265Z,1026.90
2019-03-26T02:56:12.146Z,1026.92
2019-03-26T02:57:12.150Z,1026.90
2019-03-26T02:58:12.026Z,1026.93
2019-03-26T02:59:12.022Z,1026.87
2019-03-26T03:00:12.027Z,1026.87
2019-03-26T03:01:11.903Z,1026.89
2019-03-26T03:02:11.902Z,1026.83
2019-03-26T03:03:11.785Z,1026.84
2019-03-26T03:04:11.797Z,1026.83
2019-03-26T03:05:11.785Z,1026.80
2019-03-26T03:06:11.667Z,1026.80
2019-03-26T03:07:11.664Z,1026.83
2019-03-26T03:08:11.546Z,1026.85
2019-03-26T03:09:11.544Z,1026.88
2019-03-26T03:10:11.550Z,1026.89
2019-03-26T03:11:11.422Z,1026.89
2019-03-26T03:12:11.418Z,1026.87
2019-03-26T03:13:11.299Z,1026.85
2019-03-26T03:14:11.298Z,1026.91
2019-03-26T03:15:11.298Z,1026.95
2019-03-26T03:16:11.178Z,1026.93
2019-03-26T03:17:11.180Z,1026.97
2019-03-26T03:18:11.057Z,1026.99
2019-03-26T03:19:11.073Z,1026.94
2019-03-26T03:20:11.065Z,1026.94
2019-03-26T03:21:10.938Z,1026.98
2019-03-26T03:22:10.941Z,1026.98
2019-03-26T03:23:10.817Z,1027.00
2019-03-26T03:24:10.817Z,1026.96
2019-03-26T03:25:10.820Z,1026.98
2019-03-26T03:26:10.694Z,1026.97
2019-03-26T03:27:10.696Z,1027.00
2019-03-26T03:28:10.582Z,1027.04
2019-03-26T03:29:10.576Z,1027.04
2019-03-26T03:30:10.594Z,1027.04
2019-03-26T03:31:10.465Z,1027.03
2019-03-26T03:32:10.456Z,1027.05
2019-03-26T03:33:10.342Z,1027.05
2019-03-26T03:34:10.350Z,1027.05
2019-03-26T03:35:10.338Z,1027.04
2019-03-26T03:36:10.217Z,1027.06
2019-03-26T03:37:10.218Z,1027.06
2019-03-26T03:38:10.093Z,1027.05
2019-03-26T03:39:10.108Z,1027.06
2019-03-26T03:40:10.096Z,1027.02
2019-03-26T03:41:09.973Z,1027.05
2019-03-26T03:42:09.976Z,1027.03
2019-03-26T03:43:09.859Z,1026.98
2019-03-26T03:44:09.864Z,1026.99
2019-03-26T03:45:09.877Z,1027.02
2019-03-26T03:46:09.743Z,1026.98
2019-03-26T03:47:09.737Z,1027.00
2019-03-26T03:48:09.614Z,1026.99
2019-03-26T03:49:09.615Z,1026.97
2019-03-26T03:50:09.612Z,1026.96
2019-03-26T03:51:09.497Z,1026.97
2019-03-26T03:52:09.498Z,1026.99
2019-03-26T03:53:09.376Z,1027.04
2019-03-26T03:54:09.372Z,1027.00
2019-03-26T03:55:09.389Z,1027.03
2019-03-26T03:56:09.251Z,1027.01
2019-03-26T03:57:09.248Z,1027.04
2019-03-26T03:58:09.130Z,1027.08
2019-03-26T03:59:09.131Z,1027.10
2019-03-26T04:00:09.127Z,1027.09
2019-03-26T04:01:09.016Z,1027.10
2019-03-26T04:02:09.018Z,1027.02
2019-03-26T04:03:08.894Z,1027.06
2019-03-26T04:04:08.894Z,1027.05
2019-03-26T04:05:08.890Z,1027.07
2019-03-26T04:06:10.232Z,1027.04
2019-03-26T04:07:08.768Z,1027.03
2019-03-26T04:08:08.702Z,1027.06
2019-03-26T04:09:08.647Z,1027.00
2019-03-26T04:10:08.650Z,1027.03
2019-03-26T04:11:08.532Z,1027.02
2019-03-26T04:12:08.526Z,1027.04
2019-03-26T04:13:08.409Z,1027.02
2019-03-26T04:14:08.408Z,1027.02
2019-03-26T04:15:08.410Z,1027.03
2019-03-26T04:16:08.289Z,1027.01
2019-03-26T04:17:08.287Z,1026.95
2019-03-26T04:18:08.177Z,1027.00
2019-03-26T04:19:08.166Z,1027.02
2019-03-26T04:20:08.167Z,1027.01
2019-03-26T04:21:08.050Z,1027.03
2019-03-26T04:22:08.046Z,1027.02
2019-03-26T04:23:07.922Z,1026.97
2019-03-26T04:24:07.925Z,1027.05
2019-03-26T04:25:07.927Z,1026.90
2019-03-26T04:26:07.808Z,1026.92
2019-03-26T04:27:07.805Z,1026.93
2019-03-26T04:28:07.687Z,1026.92
2019-03-26T04:29:07.693Z,1026.88
2019-03-26T04:30:07.686Z,1026.85
2019-03-26T04:31:07.573Z,1026.87
2019-03-26T04:32:07.564Z,1026.90
2019-03-26T04:33:07.451Z,1026.90
2019-03-26T04:34:07.447Z,1026.94
2019-03-26T04:35:07.445Z,1026.91
2019-03-26T04:36:07.351Z,1026.91
2019-03-26T04:37:07.321Z,1026.91
2019-03-26T04:38:07.202Z,1026.95
2019-03-26T04:39:07.204Z,1026.97
2019-03-26T04:40:07.209Z,1026.94
2019-03-26T04:41:07.084Z,1026.95
2019-03-26T04:42:07.086Z,1026.98
2019-03-26T04:43:06.960Z,1027.02
2019-03-26T04:44:06.962Z,1027.07
2019-03-26T04:45:06.959Z,1027.07
2019-03-26T04:46:06.841Z,1027.06
2019-03-26T04:47:06.838Z,1027.04
2019-03-26T04:48:06.718Z,1027.08
2019-03-26T04:49:06.794Z,1027.06
2019-03-26T04:50:06.718Z,1027.00
2019-03-26T04:51:06.601Z,1027.03
2019-03-26T04:52:06.600Z,1026.97
2019-03-26T04:53:06.481Z,1026.96
2019-03-26T04:54:06.481Z,1026.97
2019-03-26T04:55:06.477Z,1026.95
2019-03-26T04:56:06.360Z,1026.94
2019-03-26T04:57:06.361Z,1026.96
2019-03-26T04:58:06.239Z,1026.95
2019-03-26T04:59:06.238Z,1026.98
2019-03-26T05:00:06.245Z,1026.96
2019-03-26T05:01:06.119Z,1026.88
2019-03-26T05:02:06.116Z,1026.92
2019-03-26T05:03:06.002Z,1026.93
2019-03-26T05:04:06.005Z,1026.91
2019-03-26T05:05:05.998Z,1026.93
2019-03-26T05:06:05.886Z,1026.99
2019-03-26T05:07:05.877Z,1026.93
2019-03-26T05:08:05.763Z,1026.93
2019-03-26T05:09:05.771Z,1026.90
2019-03-26T05:10:05.756Z,1026.92
2019-03-26T05:11:05.640Z,1026.86
2019-03-26T05:12:05.636Z,1026.87
2019-03-26T05:13:05.516Z,1026.90
2019-03-26T05:14:05.525Z,1026.87
2019-03-26T05:15:05.523Z,1026.87
2019-03-26T05:16:05.396Z,1026.83
2019-03-26T05:17:05.398Z,1026.84
2019-03-26T05:18:05.274Z,1026.82
2019-03-26T05:19:05.277Z,1026.83
2019-03-26T05:20:05.274Z,1026.84
2019-03-26T05:21:05.159Z,1026.84
2019-03-26T05:22:05.154Z,1026.90
2019-03-26T05:23:05.038Z,1026.85
2019-03-26T05:24:05.032Z,1026.89
2019-03-26T05:25:05.039Z,1026.86
2019-03-26T05:26:04.917Z,1026.91
2019-03-26T05:27:04.910Z,1026.91
2019-03-26T05:28:04.792Z,1026.91
2019-03-26T05:29:04.789Z,1026.88
2019-03-26T05:30:04.794Z,1026.90
2019-03-26T05:31:04.669Z,1026.91
2019-03-26T05:32:04.674Z,1026.93
2019-03-26T05:33:04.552Z,1026.94
2019-03-26T05:34:04.550Z,1027.00
2019-03-26T05:35:04.556Z,1027.00
2019-03-26T05:36:04.430Z,1027.03
2019-03-26T05:37:04.431Z,1027.00
2019-03-26T05:38:04.428Z,1027.02
2019-03-26T05:39:04.319Z,1027.01
2019-03-26T05:40:04.311Z,1026.99
2019-03-26T05:41:04.201Z,1026.99
2019-03-26T05:42:04.193Z,1026.99
2019-03-26T05:43:04.073Z,1027.04
2019-03-26T05:44:04.069Z,1027.00
2019-03-26T05:45:04.074Z,1027.03
2019-03-26T05:46:03.952Z,1027.07
2019-03-26T05:47:03.945Z,1027.04
2019-03-26T05:48:03.835Z,1027.06
2019-03-26T05:49:03.835Z,1027.09
2019-03-26T05:50:03.833Z,1027.05
2019-03-26T05:51:03.705Z,1027.07
2019-03-26T05:52:03.723Z,1027.05
2019-03-26T05:53:03.590Z,1027.06
2019-03-26T05:54:03.589Z,1027.05
2019-03-26T05:55:03.591Z,1027.01
2019-03-26T05:56:03.462Z,1027.06
2019-03-26T05:57:03.471Z,1027.06
2019-03-26T05:58:03.352Z,1027.08
2019-03-26T05:59:03.354Z,1027.05
2019-03-26T06:00:03.344Z,1027.08
2019-03-26T06:01:03.222Z,1027.03
2019-03-26T06:02:13.447Z,1027.08
2019-03-26T06:03:03.106Z,1027.09
2019-03-26T06:04:03.105Z,1027.12
2019-03-26T06:05:03.109Z,1027.09
2019-03-26T06:06:02.986Z,1027.08
2019-03-26T06:07:05.220Z,1027.11
2019-03-26T06:08:02.866Z,1027.06
2019-03-26T06:09:02.867Z,1027.07
2019-03-26T06:10:02.869Z,1027.10
2019-03-26T06:11:02.749Z,1027.16
2019-03-26T06:12:02.948Z,1027.17
2019-03-26T06:13:02.627Z,1027.18
2019-03-26T06:14:02.623Z,1027.15
2019-03-26T06:15:02.624Z,1027.13
2019-03-26T06:16:02.505Z,1027.14
2019-03-26T06:17:02.587Z,1027.12
2019-03-26T06:18:02.386Z,1027.10
2019-03-26T06:19:02.381Z,1027.16
2019-03-26T06:20:02.379Z,1027.12
2019-03-26T06:21:02.260Z,1027.14
2019-03-26T06:22:02.265Z,1027.18
2019-03-26T06:23:02.142Z,1027.20
2019-03-26T06:24:02.146Z,1027.21
2019-03-26T06:25:02.154Z,1027.22
2019-03-26T06:26:02.022Z,1027.23
2019-03-26T06:27:02.018Z,1027.24
2019-03-26T06:28:01.898Z,1027.30
2019-03-26T06:29:01.899Z,1027.27
2019-03-26T06:30:01.902Z,1027.27
2019-03-26T06:31:01.782Z,1027.30
2019-03-26T06:32:01.778Z,1027.32
2019-03-26T06:33:01.658Z,1027.29
2019-03-26T06:34:01.660Z,1027.37
2019-03-26T06:35:01.660Z,1027.31
2019-03-26T06:36:01.536Z,1027.34
2019-03-26T06:37:01.545Z,1027.32
2019-03-26T06:38:01.427Z,1027.32
2019-03-26T06:39:01.418Z,1027.32
2019-03-26T06:40:01.416Z,1027.31
2019-03-26T06:41:01.297Z,1027.35
2019-03-26T06:42:01.298Z,1027.35
2019-03-26T06:43:01.178Z,1027.38
2019-03-26T06:44:01.175Z,1027.39
2019-03-26T06:45:01.176Z,1027.42
2019-03-26T06:46:01.056Z,1027.42
2019-03-26T06:47:01.053Z,1027.45
2019-03-26T06:48:03.963Z,1027.48
2019-03-26T06:49:00.937Z,1027.45
2019-03-26T06:50:00.937Z,1027.46
2019-03-26T06:51:00.814Z,1027.49
2019-03-26T06:52:00.815Z,1027.46
2019-03-26T06:53:00.774Z,1027.50
2019-03-26T06:54:00.693Z,1027.47
2019-03-26T06:55:00.692Z,1027.51
2019-03-26T06:56:00.578Z,1027.47
2019-03-26T06:57:00.570Z,1027.52
2019-03-26T06:58:00.572Z,1027.49
2019-03-26T06:59:00.453Z,1027.49
2019-03-26T07:00:00.453Z,1027.45
2019-03-26T07:01:00.335Z,1027.45
2019-03-26T07:02:00.351Z,1027.45
2019-03-26T07:03:00.333Z,1027.47
2019-03-26T07:04:00.217Z,1027.54
2019-03-26T07:05:00.455Z,1027.55
2019-03-26T07:06:00.089Z,1027.53
2019-03-26T07:07:00.091Z,1027.54
2019-03-26T07:08:00.090Z,1027.51
2019-03-26T07:08:59.969Z,1027.48
2019-03-26T07:09:59.972Z,1027.52
2019-03-26T07:10:59.853Z,1027.52
2019-03-26T07:11:59.847Z,1027.56
2019-03-26T07:12:59.849Z,1027.57
2019-03-26T07:13:59.727Z,1027.60
2019-03-26T07:14:59.727Z,1027.64
2019-03-26T07:15:59.615Z,1027.70
2019-03-26T07:16:59.605Z,1027.69
2019-03-26T07:17:59.612Z,1027.69
2019-03-26T07:18:59.487Z,1027.69
2019-03-26T07:19:59.493Z,1027.69
2019-03-26T07:20:59.369Z,1027.70
2019-03-26T07:21:59.370Z,1027.73
2019-03-26T07:22:59.367Z,1027.77
2019-03-26T07:23:59.250Z,1027.81
2019-03-26T07:24:59.249Z,1027.81
2019-03-26T07:25:59.126Z,1027.86
2019-03-26T07:26:59.124Z,1027.87
2019-03-26T07:27:59.149Z,1027.85
2019-03-26T07:28:59.008Z,1027.86
2019-03-26T07:29:59.005Z,1027.85
2019-03-26T07:30:58.947Z,1027.86
2019-03-26T07:31:58.886Z,1027.88
2019-03-26T07:32:58.893Z,1027.93
2019-03-26T07:33:58.766Z,1027.95
2019-03-26T07:34:58.766Z,1027.91
2019-03-26T07:35:58.659Z,1027.94
2019-03-26T07:36:58.648Z,1027.92
2019-03-26T07:37:58.641Z,1027.93
2019-03-26T07:38:58.521Z,1027.97
2019-03-26T07:39:58.523Z,1027.98
2019-03-26T07:40:58.401Z,1027.94
2019-03-26T07:41:58.403Z,1027.94
2019-03-26T07:42:58.400Z,1027.97
2019-03-26T07:43:58.292Z,1027.95
2019-03-26T07:44:58.281Z,1027.96
2019-03-26T07:45:58.170Z,1027.94
2019-03-26T07:46:58.168Z,1027.90
2019-03-26T07:47:58.164Z,1027.93
2019-03-26T07:48:58.042Z,1027.93
2019-03-26T07:49:58.044Z,1027.92
2019-03-26T07:50:57.918Z,1027.94
2019-03-26T07:51:57.922Z,1027.90
2019-03-26T07:52:57.922Z,1027.93
2019-03-26T07:53:57.803Z,1027.93
2019-03-26T07:54:57.803Z,1027.99
2019-03-26T07:55:57.762Z,1027.96
2019-03-26T07:56:57.681Z,1027.94
2019-03-26T07:57:57.679Z,1027.97
2019-03-26T07:58:57.558Z,1027.97
2019-03-26T07:59:57.561Z,1028.00
2019-03-26T08:00:57.554Z,1028.01
2019-03-26T08:01:57.441Z,1028.00
2019-03-26T08:02:57.436Z,1027.97
2019-03-26T08:03:57.320Z,1028.00
2019-03-26T08:04:57.319Z,1027.95
2019-03-26T08:05:57.317Z,1027.98
2019-03-26T08:06:57.199Z,1027.92
2019-03-26T08:07:58.502Z,1027.95
2019-03-26T08:08:57.084Z,1027.96
2019-03-26T08:09:57.080Z,1027.90
2019-03-26T08:10:57.104Z,1027.90
2019-03-26T08:11:56.957Z,1027.95
2019-03-26T08:12:56.984Z,1027.94
2019-03-26T08:13:56.864Z,1027.96
2019-03-26T08:14:56.835Z,1027.94
2019-03-26T08:15:56.839Z,1027.97
2019-03-26T08:16:56.724Z,1028.04
2019-03-26T08:17:56.713Z,1028.03
2019-03-26T08:18:56.593Z,1028.04
2019-03-26T08:19:56.596Z,1028.01
2019-03-26T08:20:57.602Z,1028.00
2019-03-26T08:21:56.472Z,1027.99
2019-03-26T08:22:56.475Z,1027.98
2019-03-26T08:23:56.357Z,1027.99
2019-03-26T08:24:56.360Z,1028.00
2019-03-26T08:25:56.353Z,1028.01
2019-03-26T08:26:56.233Z,1027.98
2019-03-26T08:27:56.230Z,1027.98
2019-03-26T08:28:56.120Z,1028.01
2019-03-26T08:29:56.111Z,1027.97
2019-03-26T08:30:56.111Z,1027.97
2019-03-26T08:31:55.990Z,1027.98
2019-03-26T08:32:55.990Z,1028.00
2019-03-26T08:33:55.872Z,1027.99
2019-03-26T08:34:55.874Z,1028.00
2019-03-26T08:35:55.875Z,1027.97
2019-03-26T08:36:55.750Z,1028.00
2019-03-26T08:37:55.749Z,1028.00
2019-03-26T08:38:55.711Z,1027.99
2019-03-26T08:39:55.632Z,1027.99
2019-03-26T08:40:55.637Z,1028.01
2019-03-26T08:41:55.509Z,1028.02
2019-03-26T08:42:55.507Z,1028.00
2019-03-26T08:43:55.509Z,1028.06
2019-03-26T08:44:55.388Z,1028.03
2019-03-26T08:45:55.392Z,1028.07
2019-03-26T08:46:55.272Z,1028.05
2019-03-26T08:47:55.271Z,1027.99
2019-03-26T08:48:55.266Z,1028.01
2019-03-26T08:49:55.147Z,1027.94
2019-03-26T08:50:55.152Z,1027.94
2019-03-26T08:51:55.027Z,1027.98
2019-03-26T08:52:55.029Z,1027.99
2019-03-26T08:53:55.044Z,1028.01
2019-03-26T08:54:54.905Z,1028.08
2019-03-26T08:55:54.910Z,1028.04
2019-03-26T08:56:54.787Z,1028.02
2019-03-26T08:57:54.788Z,1028.04
2019-03-26T08:58:54.791Z,1027.98
2019-03-26T08:59:54.672Z,1027.99
2019-03-26T09:00:54.673Z,1028.02
2019-03-26T09:01:54.672Z,1027.99
2019-03-26T09:02:54.547Z,1028.07
2019-03-26T09:03:54.543Z,1028.10
2019-03-26T09:04:54.424Z,1028.07
2019-03-26T09:05:54.429Z,1028.04
2019-03-26T09:06:54.422Z,1028.10
2019-03-26T09:07:54.310Z,1028.07
2019-03-26T09:08:54.307Z,1028.07
2019-03-26T09:09:54.181Z,1028.07
2019-03-26T09:10:54.186Z,1028.08
2019-03-26T09:11:54.184Z,1028.09
2019-03-26T09:12:54.063Z,1028.12
2019-03-26T09:13:54.062Z,1028.07
2019-03-26T09:14:53.940Z,1028.10
2019-03-26T09:15:53.944Z,1028.08
2019-03-26T09:16:53.940Z,1028.06
2019-03-26T09:17:53.835Z,1028.05
2019-03-26T09:18:53.819Z,1028.09
2019-03-26T09:19:53.821Z,1028.06
2019-03-26T09:20:53.705Z,1028.10
2019-03-26T09:21:53.700Z,1028.10
2019-03-26T09:22:53.582Z,1028.11
2019-03-26T09:23:53.578Z,1028.16
2019-03-26T09:24:53.581Z,1028.12
2019-03-26T09:25:53.460Z,1028.13
2019-03-26T09:26:53.457Z,1028.12
2019-03-26T09:27:53.343Z,1028.19
2019-03-26T09:28:53.342Z,1028.17
2019-03-26T09:29:53.341Z,1028.15
2019-03-26T09:30:53.220Z,1028.18
2019-03-26T09:31:53.544Z,1028.19
2019-03-26T09:32:53.188Z,1028.23
2019-03-26T09:33:53.103Z,1028.23
2019-03-26T09:34:53.097Z,1028.24
2019-03-26T09:35:52.988Z,1028.19
2019-03-26T09:36:52.975Z,1028.17
2019-03-26T09:37:52.983Z,1028.21
2019-03-26T09:38:52.855Z,1028.18
2019-03-26T09:39:52.858Z,1028.19
2019-03-26T09:40:52.734Z,1028.18
2019-03-26T09:41:52.745Z,1028.18
2019-03-26T09:42:52.739Z,1028.21
2019-03-26T09:43:52.616Z,1028.17
2019-03-26T09:44:52.619Z,1028.19
2019-03-26T09:45:52.495Z,1028.14
2019-03-26T09:46:52.496Z,1028.06
2019-03-26T09:47:52.499Z,1028.11
2019-03-26T09:48:52.382Z,1028.08
2019-03-26T09:49:52.372Z,1028.13
2019-03-26T09:50:52.257Z,1028.13
2019-03-26T09:51:52.254Z,1028.11
2019-03-26T09:52:52.252Z,1028.12
2019-03-26T09:53:52.224Z,1028.11
2019-03-26T09:54:52.145Z,1028.12
2019-03-26T09:55:52.133Z,1028.03
2019-03-26T09:56:52.027Z,1028.18
2019-03-26T09:57:52.019Z,1028.17
2019-03-26T09:58:51.891Z,1028.15
2019-03-26T09:59:51.898Z,1028.18
2019-03-26T10:00:52.054Z,1028.14
2019-03-26T10:01:51.770Z,1028.11
2019-03-26T10:02:51.787Z,1028.13
2019-03-26T10:03:51.656Z,1028.16
2019-03-26T10:04:51.659Z,1028.16
2019-03-26T10:05:51.654Z,1028.13
2019-03-26T10:06:51.532Z,1028.09
2019-03-26T10:07:51.531Z,1028.13
2019-03-26T10:08:52.879Z,1028.09
2019-03-26T10:09:51.409Z,1028.01
2019-03-26T10:10:51.408Z,1028.03
2019-03-26T10:11:51.289Z,1028.04
2019-03-26T10:12:51.288Z,1027.99
2019-03-26T10:13:51.286Z,1028.03
2019-03-26T10:14:51.172Z,1028.03
2019-03-26T10:15:51.171Z,1028.06
2019-03-26T10:16:51.049Z,1028.06
2019-03-26T10:17:51.050Z,1028.04
2019-03-26T10:18:51.049Z,1028.01
2019-03-26T10:19:50.928Z,1028.07
2019-03-26T10:20:50.930Z,1028.09
2019-03-26T10:21:50.881Z,1028.06
2019-03-26T10:22:50.811Z,1028.08
2019-03-26T10:23:50.806Z,1028.02
2019-03-26T10:24:50.687Z,1028.01
2019-03-26T10:25:50.688Z,1028.00
2019-03-26T10:26:50.767Z,1027.99
2019-03-26T10:27:50.679Z,1027.96
2019-03-26T10:28:50.686Z,1027.97
2019-03-26T10:29:50.462Z,1027.98
2019-03-26T10:30:50.457Z,1027.98
2019-03-26T10:31:50.446Z,1027.94
2019-03-26T10:32:50.326Z,1027.95
2019-03-26T10:33:50.325Z,1027.92
2019-03-26T10:34:50.203Z,1027.94
2019-03-26T10:35:50.204Z,1027.94
2019-03-26T10:36:50.202Z,1027.91
2019-03-26T10:37:50.085Z,1027.91
2019-03-26T10:38:50.580Z,1027.87
2019-03-26T10:39:50.086Z,1027.91
2019-03-26T10:40:49.963Z,1027.91
2019-03-26T10:41:49.971Z,1027.89
2019-03-26T10:42:49.842Z,1027.88
2019-03-26T10:43:49.848Z,1027.84
2019-03-26T10:44:49.845Z,1027.88
2019-03-26T10:45:49.727Z,1027.90
2019-03-26T10:46:49.730Z,1027.86
2019-03-26T10:47:49.717Z,1027.88
2019-03-26T10:48:49.602Z,1027.95
2019-03-26T10:49:49.599Z,1027.90
2019-03-26T10:50:49.498Z,1027.87
2019-03-26T10:51:49.491Z,1027.88
2019-03-26T10:52:49.485Z,1027.88
2019-03-26T10:53:49.363Z,1027.92
2019-03-26T10:54:49.360Z,1027.88
2019-03-26T10:55:49.241Z,1027.89
2019-03-26T10:56:49.243Z,1027.89
2019-03-26T10:57:49.242Z,1027.88
2019-03-26T10:58:49.120Z,1027.92
2019-03-26T10:59:49.119Z,1027.95
2019-03-26T11:00:49.141Z,1027.95
2019-03-26T11:01:49.002Z,1027.91
2019-03-26T11:02:48.998Z,1027.95
2019-03-26T11:03:48.880Z,1027.95
2019-03-26T11:04:48.879Z,1027.90
2019-03-26T11:05:48.880Z,1027.91
2019-03-26T11:06:48.757Z,1027.92
2019-03-26T11:07:48.757Z,1027.87
2019-03-26T11:08:48.760Z,1027.82
2019-03-26T11:09:48.640Z,1027.83
2019-03-26T11:10:48.640Z,1027.78
2019-03-26T11:11:48.524Z,1027.86
2019-03-26T11:12:48.523Z,1027.82
2019-03-26T11:13:48.516Z,1027.78
2019-03-26T11:14:48.401Z,1027.77
2019-03-26T11:15:48.397Z,1027.72
2019-03-26T11:16:48.392Z,1027.76
2019-03-26T11:17:48.278Z,1027.73
2019-03-26T11:18:48.279Z,1027.74
2019-03-26T11:19:48.156Z,1027.72
2019-03-26T11:21:01.365Z,1027.67
2019-03-26T11:21:48.154Z,1027.64
2019-03-26T11:22:48.038Z,1027.64
2019-03-26T11:23:48.035Z,1027.63
2019-03-26T11:24:47.913Z,1027.65
2019-03-26T11:25:47.922Z,1027.68
2019-03-26T11:26:47.912Z,1027.70
2019-03-26T11:27:47.792Z,1027.65
2019-03-26T11:28:47.796Z,1027.68
2019-03-26T11:29:47.789Z,1027.68
2019-03-26T11:30:47.673Z,1027.63
2019-03-26T11:31:47.671Z,1027.57
2019-03-26T11:32:47.552Z,1027.63
2019-03-26T11:33:47.549Z,1027.61
2019-03-26T11:34:47.552Z,1027.60
2019-03-26T11:35:47.436Z,1027.60
2019-03-26T11:36:47.431Z,1027.62
2019-03-26T11:37:47.434Z,1027.60
2019-03-26T11:38:47.311Z,1027.60
2019-03-26T11:39:50.992Z,1027.61
2019-03-26T11:40:47.193Z,1027.57
2019-03-26T11:41:47.187Z,1027.63
2019-03-26T11:42:47.199Z,1027.64
2019-03-26T11:43:47.078Z,1027.62
2019-03-26T11:44:47.067Z,1027.63
2019-03-26T11:45:46.947Z,1027.62
2019-03-26T11:46:46.950Z,1027.67
2019-03-26T11:47:46.949Z,1027.68
2019-03-26T11:48:46.829Z,1027.67
2019-03-26T11:49:46.827Z,1027.68
2019-03-26T11:50:46.836Z,1027.66
2019-03-26T11:51:46.714Z,1027.65
2019-03-26T11:52:46.707Z,1027.65
2019-03-26T11:53:46.591Z,1027.59
2019-03-26T11:54:46.590Z,1027.56
2019-03-26T11:55:46.587Z,1027.56
2019-03-26T11:56:46.467Z,1027.52
2019-03-26T11:57:46.470Z,1027.54
2019-03-26T11:58:46.348Z,1027.48
2019-03-26T11:59:46.350Z,1027.49
2019-03-26T12:00:46.352Z,1027.51
2019-03-26T12:01:46.226Z,1027.45
2019-03-26T12:02:46.228Z,1027.48
2019-03-26T12:03:46.225Z,1027.47
2019-03-26T12:04:46.105Z,1027.49